sensor_id;sensor_type;location;lat;lon;timestamp;temperature;humidity
19888;DHT22;10106;51.332;12.336;2023-06-26T00:01:35;19.40;99.90
19888;DHT22;10106;51.332;12.336;2023-06-26T00:04:01;19.40;99.90
19888;DHT22;10106;51.332;12.336;2023-06-26T00:06:27;19.30;99.90
19888;DHT22;10106;51.332;12.336;2023-06-26T00:08:55;19.40;99.90
19888;DHT22;10106;51.332;12.336;2023-06-26T00:11:21;19.30;99.90
19888;DHT22;10106;51.332;12.336;2023-06-26T00:13:46;19.20;99.90
19888;DHT22;10106;51.332;12.336;2023-06-26T00:16:12;19.20;99.90
19888;DHT22;10106;51.332;12.336;2023-06-26T00:18:38;19.20;99.90
19888;DHT22;10106;51.332;12.336;2023-06-26T00:21:03;19.20;99.90
19888;DHT22;10106;51.332;12.336;2023-06-26T00:23:29;19.20;99.90
19888;DHT22;10106;51.332;12.336;2023-06-26T00:25:56;19.20;99.90
19888;DHT22;10106;51.332;12.336;2023-06-26T00:28:22;19.20;99.90
19888;DHT22;10106;51.332;12.336;2023-06-26T00:30:47;19.10;99.90
19888;DHT22;10106;51.332;12.336;2023-06-26T00:33:13;19.10;99.90
19888;DHT22;10106;51.332;12.336;2023-06-26T00:35:38;19.10;99.90
19888;DHT22;10106;51.332;12.336;2023-06-26T00:38:04;19.00;99.90
19888;DHT22;10106;51.332;12.336;2023-06-26T00:40:29;19.00;99.90
19888;DHT22;10106;51.332;12.336;2023-06-26T00:42:55;19.00;99.90
19888;DHT22;10106;51.332;12.336;2023-06-26T00:45:20;18.90;99.90
19888;DHT22;10106;51.332;12.336;2023-06-26T00:47:46;19.00;99.90
19888;DHT22;10106;51.332;12.336;2023-06-26T00:50:12;19.00;99.90
19888;DHT22;10106;51.332;12.336;2023-06-26T00:52:38;19.00;99.90
19888;DHT22;10106;51.332;12.336;2023-06-26T00:55:04;19.00;99.90
19888;DHT22;10106;51.332;12.336;2023-06-26T00:57:30;18.90;99.90
19888;DHT22;10106;51.332;12.336;2023-06-26T00:59:55;18.90;99.90
19888;DHT22;10106;51.332;12.336;2023-06-26T01:02:21;18.90;99.90
19888;DHT22;10106;51.332;12.336;2023-06-26T01:04:48;18.90;99.90
19888;DHT22;10106;51.332;12.336;2023-06-26T01:07:14;18.90;99.90
19888;DHT22;10106;51.332;12.336;2023-06-26T01:09:40;18.90;99.90
19888;DHT22;10106;51.332;12.336;2023-06-26T01:12:06;18.90;99.90
19888;DHT22;10106;51.332;12.336;2023-06-26T01:14:33;18.90;99.90
19888;DHT22;10106;51.332;12.336;2023-06-26T01:16:59;18.90;99.90
19888;DHT22;10106;51.332;12.336;2023-06-26T01:19:26;18.90;99.90
19888;DHT22;10106;51.332;12.336;2023-06-26T01:24:45;18.90;99.90
19888;DHT22;10106;51.332;12.336;2023-06-26T01:27:14;18.80;99.90
19888;DHT22;10106;51.332;12.336;2023-06-26T01:29:40;18.80;99.90
19888;DHT22;10106;51.332;12.336;2023-06-26T01:32:07;18.80;99.90
19888;DHT22;10106;51.332;12.336;2023-06-26T01:34:32;18.80;99.90
19888;DHT22;10106;51.332;12.336;2023-06-26T01:36:58;18.80;99.90
19888;DHT22;10106;51.332;12.336;2023-06-26T01:39:24;18.70;99.90
19888;DHT22;10106;51.332;12.336;2023-06-26T01:41:50;18.70;99.90
19888;DHT22;10106;51.332;12.336;2023-06-26T01:44:23;18.70;99.90
19888;DHT22;10106;51.332;12.336;2023-06-26T01:49:24;18.70;99.90
19888;DHT22;10106;51.332;12.336;2023-06-26T01:54:52;18.60;99.90
19888;DHT22;10106;51.332;12.336;2023-06-26T01:57:19;18.60;99.90
19888;DHT22;10106;51.332;12.336;2023-06-26T01:59:46;18.50;99.90
19888;DHT22;10106;51.332;12.336;2023-06-26T02:02:12;18.50;99.90
19888;DHT22;10106;51.332;12.336;2023-06-26T02:04:39;18.50;99.90
19888;DHT22;10106;51.332;12.336;2023-06-26T02:07:05;18.50;99.90
19888;DHT22;10106;51.332;12.336;2023-06-26T02:09:30;18.50;99.90
19888;DHT22;10106;51.332;12.336;2023-06-26T02:11:56;18.40;99.90
19888;DHT22;10106;51.332;12.336;2023-06-26T02:14:21;18.40;99.90
19888;DHT22;10106;51.332;12.336;2023-06-26T02:16:47;18.40;99.90
19888;DHT22;10106;51.332;12.336;2023-06-26T02:19:13;18.30;99.90
19888;DHT22;10106;51.332;12.336;2023-06-26T02:21:49;18.30;99.90
19888;DHT22;10106;51.332;12.336;2023-06-26T02:24:15;18.30;99.90
19888;DHT22;10106;51.332;12.336;2023-06-26T02:26:40;18.30;99.90
19888;DHT22;10106;51.332;12.336;2023-06-26T02:29:06;18.20;99.90
19888;DHT22;10106;51.332;12.336;2023-06-26T02:31:32;18.20;99.90
19888;DHT22;10106;51.332;12.336;2023-06-26T02:33:57;18.20;99.90
19888;DHT22;10106;51.332;12.336;2023-06-26T02:36:23;18.20;99.90
19888;DHT22;10106;51.332;12.336;2023-06-26T02:38:49;18.20;99.90
19888;DHT22;10106;51.332;12.336;2023-06-26T02:41:14;18.30;99.90
19888;DHT22;10106;51.332;12.336;2023-06-26T02:43:40;18.30;99.90
19888;DHT22;10106;51.332;12.336;2023-06-26T02:46:05;18.20;99.90
19888;DHT22;10106;51.332;12.336;2023-06-26T02:48:31;18.20;99.90
19888;DHT22;10106;51.332;12.336;2023-06-26T02:50:56;18.20;99.90
19888;DHT22;10106;51.332;12.336;2023-06-26T02:53:22;18.20;99.90
19888;DHT22;10106;51.332;12.336;2023-06-26T02:55:48;18.20;99.90
19888;DHT22;10106;51.332;12.336;2023-06-26T02:58:13;18.20;99.90
19888;DHT22;10106;51.332;12.336;2023-06-26T03:00:39;18.20;99.90
19888;DHT22;10106;51.332;12.336;2023-06-26T03:03:09;18.20;99.90
19888;DHT22;10106;51.332;12.336;2023-06-26T03:05:35;18.10;99.90
19888;DHT22;10106;51.332;12.336;2023-06-26T03:08:01;18.10;99.90
19888;DHT22;10106;51.332;12.336;2023-06-26T03:10:27;18.10;99.90
19888;DHT22;10106;51.332;12.336;2023-06-26T03:12:53;18.10;99.90
19888;DHT22;10106;51.332;12.336;2023-06-26T03:15:19;18.20;99.90
19888;DHT22;10106;51.332;12.336;2023-06-26T03:17:44;18.20;99.90
19888;DHT22;10106;51.332;12.336;2023-06-26T03:20:10;18.20;99.90
19888;DHT22;10106;51.332;12.336;2023-06-26T03:22:36;18.30;99.90
19888;DHT22;10106;51.332;12.336;2023-06-26T03:25:02;18.30;99.90
19888;DHT22;10106;51.332;12.336;2023-06-26T03:27:28;18.30;99.90
19888;DHT22;10106;51.332;12.336;2023-06-26T03:29:53;18.30;99.90
19888;DHT22;10106;51.332;12.336;2023-06-26T03:32:19;18.30;99.90
19888;DHT22;10106;51.332;12.336;2023-06-26T03:34:44;18.30;99.90
19888;DHT22;10106;51.332;12.336;2023-06-26T03:37:10;18.40;99.90
19888;DHT22;10106;51.332;12.336;2023-06-26T03:39:36;18.40;99.90
19888;DHT22;10106;51.332;12.336;2023-06-26T03:42:01;18.50;99.90
19888;DHT22;10106;51.332;12.336;2023-06-26T03:44:27;18.60;99.90
19888;DHT22;10106;51.332;12.336;2023-06-26T03:46:53;19.00;99.90
19888;DHT22;10106;51.332;12.336;2023-06-26T03:49:19;19.80;99.90
19888;DHT22;10106;51.332;12.336;2023-06-26T03:51:44;20.60;99.90
19888;DHT22;10106;51.332;12.336;2023-06-26T03:54:10;21.40;99.90
19888;DHT22;10106;51.332;12.336;2023-06-26T03:56:36;22.10;99.90
19888;DHT22;10106;51.332;12.336;2023-06-26T03:59:02;22.60;99.90
19888;DHT22;10106;51.332;12.336;2023-06-26T04:01:28;23.10;99.90
19888;DHT22;10106;51.332;12.336;2023-06-26T04:03:54;23.20;99.90
19888;DHT22;10106;51.332;12.336;2023-06-26T04:06:19;23.80;99.90
19888;DHT22;10106;51.332;12.336;2023-06-26T04:08:45;24.10;99.90
19888;DHT22;10106;51.332;12.336;2023-06-26T04:11:11;24.40;99.90
19888;DHT22;10106;51.332;12.336;2023-06-26T04:13:37;24.80;99.90
19888;DHT22;10106;51.332;12.336;2023-06-26T04:16:02;25.10;99.90
19888;DHT22;10106;51.332;12.336;2023-06-26T04:18:29;25.60;99.90
19888;DHT22;10106;51.332;12.336;2023-06-26T04:21:05;26.10;99.90
19888;DHT22;10106;51.332;12.336;2023-06-26T04:23:32;26.50;99.90
19888;DHT22;10106;51.332;12.336;2023-06-26T04:25:58;26.70;99.90
19888;DHT22;10106;51.332;12.336;2023-06-26T04:28:24;27.00;99.90
19888;DHT22;10106;51.332;12.336;2023-06-26T04:30:49;27.50;99.90
19888;DHT22;10106;51.332;12.336;2023-06-26T04:33:15;27.70;99.90
19888;DHT22;10106;51.332;12.336;2023-06-26T04:35:40;28.00;99.90
19888;DHT22;10106;51.332;12.336;2023-06-26T04:38:06;28.40;99.90
19888;DHT22;10106;51.332;12.336;2023-06-26T04:40:32;28.50;99.90
19888;DHT22;10106;51.332;12.336;2023-06-26T04:42:57;28.40;99.90
19888;DHT22;10106;51.332;12.336;2023-06-26T04:45:23;28.10;99.90
19888;DHT22;10106;51.332;12.336;2023-06-26T04:47:48;28.60;99.90
19888;DHT22;10106;51.332;12.336;2023-06-26T04:50:14;29.20;99.90
19888;DHT22;10106;51.332;12.336;2023-06-26T04:52:40;29.50;99.90
19888;DHT22;10106;51.332;12.336;2023-06-26T04:55:05;29.40;99.90
19888;DHT22;10106;51.332;12.336;2023-06-26T04:57:31;29.40;99.80
19888;DHT22;10106;51.332;12.336;2023-06-26T04:59:57;29.30;99.20
19888;DHT22;10106;51.332;12.336;2023-06-26T05:07:33;30.30;98.10
19888;DHT22;10106;51.332;12.336;2023-06-26T05:09:59;30.40;97.30
19888;DHT22;10106;51.332;12.336;2023-06-26T05:12:24;30.40;96.70
19888;DHT22;10106;51.332;12.336;2023-06-26T05:14:50;30.80;95.80
19888;DHT22;10106;51.332;12.336;2023-06-26T05:17:16;31.60;95.00
19888;DHT22;10106;51.332;12.336;2023-06-26T05:19:41;31.90;94.00
19888;DHT22;10106;51.332;12.336;2023-06-26T05:22:07;32.10;93.40
19888;DHT22;10106;51.332;12.336;2023-06-26T05:24:36;32.70;92.40
19888;DHT22;10106;51.332;12.336;2023-06-26T05:27:02;32.80;91.20
19888;DHT22;10106;51.332;12.336;2023-06-26T05:29:29;32.50;90.40
19888;DHT22;10106;51.332;12.336;2023-06-26T05:31:55;32.30;90.40
19888;DHT22;10106;51.332;12.336;2023-06-26T05:34:22;32.30;90.30
19888;DHT22;10106;51.332;12.336;2023-06-26T05:36:49;32.00;89.30
19888;DHT22;10106;51.332;12.336;2023-06-26T05:39:16;32.10;89.70
19888;DHT22;10106;51.332;12.336;2023-06-26T05:41:43;32.40;88.80
19888;DHT22;10106;51.332;12.336;2023-06-26T05:44:09;32.90;87.20
19888;DHT22;10106;51.332;12.336;2023-06-26T05:46:34;33.50;84.70
19888;DHT22;10106;51.332;12.336;2023-06-26T05:49:00;33.60;83.50
19888;DHT22;10106;51.332;12.336;2023-06-26T05:51:27;33.70;82.10
19888;DHT22;10106;51.332;12.336;2023-06-26T05:53:52;33.60;81.70
19888;DHT22;10106;51.332;12.336;2023-06-26T05:56:18;34.10;80.30
19888;DHT22;10106;51.332;12.336;2023-06-26T05:58:44;33.80;79.00
19888;DHT22;10106;51.332;12.336;2023-06-26T06:01:10;34.20;79.00
19888;DHT22;10106;51.332;12.336;2023-06-26T06:03:36;34.40;77.00
19888;DHT22;10106;51.332;12.336;2023-06-26T06:06:03;33.90;77.30
19888;DHT22;10106;51.332;12.336;2023-06-26T06:08:28;34.50;76.20
19888;DHT22;10106;51.332;12.336;2023-06-26T06:10:54;34.60;74.50
19888;DHT22;10106;51.332;12.336;2023-06-26T06:13:20;34.20;74.40
19888;DHT22;10106;51.332;12.336;2023-06-26T06:15:45;34.60;73.20
19888;DHT22;10106;51.332;12.336;2023-06-26T06:18:11;34.60;73.00
19888;DHT22;10106;51.332;12.336;2023-06-26T06:20:37;35.30;72.30
19888;DHT22;10106;51.332;12.336;2023-06-26T06:23:02;35.30;70.60
19888;DHT22;10106;51.332;12.336;2023-06-26T06:25:28;35.70;70.10
19888;DHT22;10106;51.332;12.336;2023-06-26T06:27:54;36.30;68.90
19888;DHT22;10106;51.332;12.336;2023-06-26T06:30:19;36.70;67.30
19888;DHT22;10106;51.332;12.336;2023-06-26T06:32:45;36.90;66.30
19888;DHT22;10106;51.332;12.336;2023-06-26T06:35:16;36.80;64.70
19888;DHT22;10106;51.332;12.336;2023-06-26T06:37:42;36.80;63.70
19888;DHT22;10106;51.332;12.336;2023-06-26T06:40:10;36.60;63.30
19888;DHT22;10106;51.332;12.336;2023-06-26T06:42:39;36.90;63.20
19888;DHT22;10106;51.332;12.336;2023-06-26T06:45:05;37.10;62.20
19888;DHT22;10106;51.332;12.336;2023-06-26T06:47:34;37.30;61.90
19888;DHT22;10106;51.332;12.336;2023-06-26T06:50:02;37.50;61.60
19888;DHT22;10106;51.332;12.336;2023-06-26T06:52:34;37.60;60.90
19888;DHT22;10106;51.332;12.336;2023-06-26T06:55:03;37.80;60.00
19888;DHT22;10106;51.332;12.336;2023-06-26T06:57:37;37.00;61.10
19888;DHT22;10106;51.332;12.336;2023-06-26T07:00:06;37.30;61.10
19888;DHT22;10106;51.332;12.336;2023-06-26T07:02:34;37.80;59.20
19888;DHT22;10106;51.332;12.336;2023-06-26T07:05:00;38.40;59.60
19888;DHT22;10106;51.332;12.336;2023-06-26T07:07:28;38.40;58.60
19888;DHT22;10106;51.332;12.336;2023-06-26T07:09:53;38.00;58.70
19888;DHT22;10106;51.332;12.336;2023-06-26T07:12:19;38.40;58.30
19888;DHT22;10106;51.332;12.336;2023-06-26T07:14:45;38.70;57.90
19888;DHT22;10106;51.332;12.336;2023-06-26T07:17:11;38.90;57.30
19888;DHT22;10106;51.332;12.336;2023-06-26T07:19:36;39.30;56.30
19888;DHT22;10106;51.332;12.336;2023-06-26T07:22:02;39.20;53.80
19888;DHT22;10106;51.332;12.336;2023-06-26T07:24:27;39.10;54.80
19888;DHT22;10106;51.332;12.336;2023-06-26T07:26:53;39.00;54.20
19888;DHT22;10106;51.332;12.336;2023-06-26T07:29:18;39.30;54.40
19888;DHT22;10106;51.332;12.336;2023-06-26T07:31:44;39.60;53.40
19888;DHT22;10106;51.332;12.336;2023-06-26T07:34:10;39.70;53.20
19888;DHT22;10106;51.332;12.336;2023-06-26T07:36:36;39.90;52.40
19888;DHT22;10106;51.332;12.336;2023-06-26T07:39:01;39.40;99.90
19888;DHT22;10106;51.332;12.336;2023-06-26T07:41:30;39.00;99.90
19888;DHT22;10106;51.332;12.336;2023-06-26T07:43:57;39.40;99.90
19888;DHT22;10106;51.332;12.336;2023-06-26T07:46:23;39.10;99.90
19888;DHT22;10106;51.332;12.336;2023-06-26T07:48:48;38.80;99.90
19888;DHT22;10106;51.332;12.336;2023-06-26T07:51:14;37.90;99.90
19888;DHT22;10106;51.332;12.336;2023-06-26T07:53:40;38.10;99.90
19888;DHT22;10106;51.332;12.336;2023-06-26T07:56:05;38.90;99.90
19888;DHT22;10106;51.332;12.336;2023-06-26T07:58:31;39.00;99.90
19888;DHT22;10106;51.332;12.336;2023-06-26T08:00:57;39.20;99.90
19888;DHT22;10106;51.332;12.336;2023-06-26T08:03:22;39.60;99.90
19888;DHT22;10106;51.332;12.336;2023-06-26T08:05:49;39.70;99.90
19888;DHT22;10106;51.332;12.336;2023-06-26T08:08:14;40.70;99.90
19888;DHT22;10106;51.332;12.336;2023-06-26T08:10:40;40.80;99.90
19888;DHT22;10106;51.332;12.336;2023-06-26T08:13:05;41.20;99.90
19888;DHT22;10106;51.332;12.336;2023-06-26T08:15:31;41.10;1.00
19888;DHT22;10106;51.332;12.336;2023-06-26T08:17:57;41.40;1.00
19888;DHT22;10106;51.332;12.336;2023-06-26T08:20:22;42.00;1.00
19888;DHT22;10106;51.332;12.336;2023-06-26T08:22:48;41.70;1.00
19888;DHT22;10106;51.332;12.336;2023-06-26T08:25:16;40.70;1.00
19888;DHT22;10106;51.332;12.336;2023-06-26T08:27:41;41.00;1.00
19888;DHT22;10106;51.332;12.336;2023-06-26T08:30:07;41.90;99.90
19888;DHT22;10106;51.332;12.336;2023-06-26T08:32:33;42.20;99.90
19888;DHT22;10106;51.332;12.336;2023-06-26T08:34:58;42.00;99.90
19888;DHT22;10106;51.332;12.336;2023-06-26T08:37:24;42.80;99.90
19888;DHT22;10106;51.332;12.336;2023-06-26T08:39:50;42.20;99.90
19888;DHT22;10106;51.332;12.336;2023-06-26T08:42:16;42.50;99.90
19888;DHT22;10106;51.332;12.336;2023-06-26T08:44:41;42.60;99.90
19888;DHT22;10106;51.332;12.336;2023-06-26T08:47:07;42.50;99.90
19888;DHT22;10106;51.332;12.336;2023-06-26T08:52:02;42.40;99.90
19888;DHT22;10106;51.332;12.336;2023-06-26T08:54:31;41.90;99.90
19888;DHT22;10106;51.332;12.336;2023-06-26T08:56:59;41.50;99.90
19888;DHT22;10106;51.332;12.336;2023-06-26T08:59:25;42.20;99.90
19888;DHT22;10106;51.332;12.336;2023-06-26T09:01:51;42.80;99.90
19888;DHT22;10106;51.332;12.336;2023-06-26T09:04:17;43.60;99.90
19888;DHT22;10106;51.332;12.336;2023-06-26T09:06:42;42.30;99.90
19888;DHT22;10106;51.332;12.336;2023-06-26T09:09:09;42.30;99.90
19888;DHT22;10106;51.332;12.336;2023-06-26T09:11:35;43.00;99.90
19888;DHT22;10106;51.332;12.336;2023-06-26T09:14:01;43.20;99.90
19888;DHT22;10106;51.332;12.336;2023-06-26T09:16:31;42.70;99.90
19888;DHT22;10106;51.332;12.336;2023-06-26T09:18:56;42.40;99.90
19888;DHT22;10106;51.332;12.336;2023-06-26T09:21:22;41.80;99.90
19888;DHT22;10106;51.332;12.336;2023-06-26T09:23:49;42.20;99.90
19888;DHT22;10106;51.332;12.336;2023-06-26T09:26:15;43.10;99.90
19888;DHT22;10106;51.332;12.336;2023-06-26T09:28:42;43.40;99.90
19888;DHT22;10106;51.332;12.336;2023-06-26T09:31:07;42.60;99.90
19888;DHT22;10106;51.332;12.336;2023-06-26T09:33:38;42.50;99.90
19888;DHT22;10106;51.332;12.336;2023-06-26T09:36:07;42.70;99.90
19888;DHT22;10106;51.332;12.336;2023-06-26T09:38:35;43.20;99.90
19888;DHT22;10106;51.332;12.336;2023-06-26T09:41:01;43.20;99.90
19888;DHT22;10106;51.332;12.336;2023-06-26T09:43:27;42.60;99.90
19888;DHT22;10106;51.332;12.336;2023-06-26T09:45:53;42.40;99.90
19888;DHT22;10106;51.332;12.336;2023-06-26T09:48:19;42.40;99.90
19888;DHT22;10106;51.332;12.336;2023-06-26T09:50:45;42.40;99.90
19888;DHT22;10106;51.332;12.336;2023-06-26T09:53:11;42.50;99.90
19888;DHT22;10106;51.332;12.336;2023-06-26T09:55:39;43.10;99.90
19888;DHT22;10106;51.332;12.336;2023-06-26T09:58:06;42.80;99.90
19888;DHT22;10106;51.332;12.336;2023-06-26T10:00:31;42.60;99.90
19888;DHT22;10106;51.332;12.336;2023-06-26T10:02:58;42.80;99.90
19888;DHT22;10106;51.332;12.336;2023-06-26T10:05:24;42.70;99.90
19888;DHT22;10106;51.332;12.336;2023-06-26T10:07:49;42.50;99.90
19888;DHT22;10106;51.332;12.336;2023-06-26T10:10:15;42.50;99.90
19888;DHT22;10106;51.332;12.336;2023-06-26T10:12:41;42.80;99.90
19888;DHT22;10106;51.332;12.336;2023-06-26T10:15:09;42.30;99.90
19888;DHT22;10106;51.332;12.336;2023-06-26T10:17:37;41.50;99.90
19888;DHT22;10106;51.332;12.336;2023-06-26T10:20:04;39.60;99.90
19888;DHT22;10106;51.332;12.336;2023-06-26T10:22:33;38.20;99.90
19888;DHT22;10106;51.332;12.336;2023-06-26T10:24:59;36.80;99.90
19888;DHT22;10106;51.332;12.336;2023-06-26T10:27:28;36.10;99.90
19888;DHT22;10106;51.332;12.336;2023-06-26T10:29:56;35.60;99.90
19888;DHT22;10106;51.332;12.336;2023-06-26T10:32:24;35.20;99.90
19888;DHT22;10106;51.332;12.336;2023-06-26T10:34:51;35.00;99.90
19888;DHT22;10106;51.332;12.336;2023-06-26T10:37:17;35.00;99.90
19888;DHT22;10106;51.332;12.336;2023-06-26T10:39:46;34.70;99.90
19888;DHT22;10106;51.332;12.336;2023-06-26T10:42:15;34.10;99.90
19888;DHT22;10106;51.332;12.336;2023-06-26T10:44:45;34.10;99.90
19888;DHT22;10106;51.332;12.336;2023-06-26T10:47:11;34.30;99.90
19888;DHT22;10106;51.332;12.336;2023-06-26T10:49:38;34.20;99.90
19888;DHT22;10106;51.332;12.336;2023-06-26T10:52:07;34.30;99.90
19888;DHT22;10106;51.332;12.336;2023-06-26T10:54:33;34.40;99.90
19888;DHT22;10106;51.332;12.336;2023-06-26T10:56:59;34.60;99.90
19888;DHT22;10106;51.332;12.336;2023-06-26T10:59:25;34.80;99.90
19888;DHT22;10106;51.332;12.336;2023-06-26T11:04:35;34.30;99.90
19888;DHT22;10106;51.332;12.336;2023-06-26T11:07:21;34.40;99.90
19888;DHT22;10106;51.332;12.336;2023-06-26T11:12:41;34.10;99.90
19888;DHT22;10106;51.332;12.336;2023-06-26T11:15:08;34.10;99.90
19888;DHT22;10106;51.332;12.336;2023-06-26T11:17:35;34.40;99.90
19888;DHT22;10106;51.332;12.336;2023-06-26T11:20:02;34.80;99.90
19888;DHT22;10106;51.332;12.336;2023-06-26T11:22:30;35.00;99.90
19888;DHT22;10106;51.332;12.336;2023-06-26T11:24:55;35.20;99.90
19888;DHT22;10106;51.332;12.336;2023-06-26T11:27:24;35.00;99.90
19888;DHT22;10106;51.332;12.336;2023-06-26T11:29:50;34.40;99.90
19888;DHT22;10106;51.332;12.336;2023-06-26T11:32:15;33.90;99.90
19888;DHT22;10106;51.332;12.336;2023-06-26T11:34:41;33.60;99.90
19888;DHT22;10106;51.332;12.336;2023-06-26T11:37:08;33.60;99.90
19888;DHT22;10106;51.332;12.336;2023-06-26T11:39:34;34.20;99.90
19888;DHT22;10106;51.332;12.336;2023-06-26T11:42:00;34.30;99.90
19888;DHT22;10106;51.332;12.336;2023-06-26T11:44:30;34.40;99.90
19888;DHT22;10106;51.332;12.336;2023-06-26T11:46:58;34.40;99.90
19888;DHT22;10106;51.332;12.336;2023-06-26T11:49:23;34.50;99.90
19888;DHT22;10106;51.332;12.336;2023-06-26T11:51:50;34.70;99.90
19888;DHT22;10106;51.332;12.336;2023-06-26T11:54:22;34.80;99.90
19888;DHT22;10106;51.332;12.336;2023-06-26T11:56:52;34.50;99.90
19888;DHT22;10106;51.332;12.336;2023-06-26T11:59:18;34.60;99.90
19888;DHT22;10106;51.332;12.336;2023-06-26T12:01:43;34.60;99.90
19888;DHT22;10106;51.332;12.336;2023-06-26T12:04:12;34.90;99.90
19888;DHT22;10106;51.332;12.336;2023-06-26T12:06:40;35.30;99.90
19888;DHT22;10106;51.332;12.336;2023-06-26T12:09:09;35.20;99.90
19888;DHT22;10106;51.332;12.336;2023-06-26T12:11:43;34.80;99.90
19888;DHT22;10106;51.332;12.336;2023-06-26T12:14:10;34.30;99.90
19888;DHT22;10106;51.332;12.336;2023-06-26T12:16:36;34.10;99.90
19888;DHT22;10106;51.332;12.336;2023-06-26T12:19:05;33.80;99.90
19888;DHT22;10106;51.332;12.336;2023-06-26T12:24:02;33.60;99.90
19888;DHT22;10106;51.332;12.336;2023-06-26T12:26:28;33.10;99.90
19888;DHT22;10106;51.332;12.336;2023-06-26T12:31:29;33.00;99.90
19888;DHT22;10106;51.332;12.336;2023-06-26T12:33:56;33.50;99.90
19888;DHT22;10106;51.332;12.336;2023-06-26T12:36:21;34.00;99.90
19888;DHT22;10106;51.332;12.336;2023-06-26T12:38:48;34.40;99.90
19888;DHT22;10106;51.332;12.336;2023-06-26T12:41:17;34.40;99.90
19888;DHT22;10106;51.332;12.336;2023-06-26T12:43:43;34.40;99.90
19888;DHT22;10106;51.332;12.336;2023-06-26T12:46:11;34.20;99.90
19888;DHT22;10106;51.332;12.336;2023-06-26T12:48:40;34.10;99.90
19888;DHT22;10106;51.332;12.336;2023-06-26T12:51:10;33.90;99.90
19888;DHT22;10106;51.332;12.336;2023-06-26T12:53:35;33.60;99.90
19888;DHT22;10106;51.332;12.336;2023-06-26T12:56:02;33.30;99.90
19888;DHT22;10106;51.332;12.336;2023-06-26T12:58:28;33.20;99.90
19888;DHT22;10106;51.332;12.336;2023-06-26T13:00:54;33.40;99.90
19888;DHT22;10106;51.332;12.336;2023-06-26T13:03:22;33.60;99.90
19888;DHT22;10106;51.332;12.336;2023-06-26T13:05:48;33.80;99.90
19888;DHT22;10106;51.332;12.336;2023-06-26T13:08:14;34.20;99.90
19888;DHT22;10106;51.332;12.336;2023-06-26T13:10:42;33.90;99.90
19888;DHT22;10106;51.332;12.336;2023-06-26T13:13:11;33.80;99.90
19888;DHT22;10106;51.332;12.336;2023-06-26T13:15:37;33.60;99.90
19888;DHT22;10106;51.332;12.336;2023-06-26T13:18:02;33.60;99.90
19888;DHT22;10106;51.332;12.336;2023-06-26T13:20:28;33.60;99.90
19888;DHT22;10106;51.332;12.336;2023-06-26T13:22:54;33.50;99.90
19888;DHT22;10106;51.332;12.336;2023-06-26T13:25:20;33.70;99.90
19888;DHT22;10106;51.332;12.336;2023-06-26T13:27:46;34.20;99.90
19888;DHT22;10106;51.332;12.336;2023-06-26T13:30:12;34.60;99.90
19888;DHT22;10106;51.332;12.336;2023-06-26T13:32:37;35.10;99.90
19888;DHT22;10106;51.332;12.336;2023-06-26T13:35:03;35.50;99.90
19888;DHT22;10106;51.332;12.336;2023-06-26T13:37:29;35.70;99.90
19888;DHT22;10106;51.332;12.336;2023-06-26T13:39:55;35.30;99.90
19888;DHT22;10106;51.332;12.336;2023-06-26T13:42:21;35.20;99.90
19888;DHT22;10106;51.332;12.336;2023-06-26T13:44:47;34.80;99.90
19888;DHT22;10106;51.332;12.336;2023-06-26T13:47:13;34.50;99.90
19888;DHT22;10106;51.332;12.336;2023-06-26T13:49:42;34.40;99.90
19888;DHT22;10106;51.332;12.336;2023-06-26T13:52:07;34.50;99.90
19888;DHT22;10106;51.332;12.336;2023-06-26T13:54:36;34.40;99.90
19888;DHT22;10106;51.332;12.336;2023-06-26T13:57:05;34.30;99.90
19888;DHT22;10106;51.332;12.336;2023-06-26T13:59:30;34.10;99.90
19888;DHT22;10106;51.332;12.336;2023-06-26T14:01:56;33.90;99.90
19888;DHT22;10106;51.332;12.336;2023-06-26T14:04:22;33.30;99.90
19888;DHT22;10106;51.332;12.336;2023-06-26T14:06:47;32.90;99.90
19888;DHT22;10106;51.332;12.336;2023-06-26T14:09:13;32.00;99.90
19888;DHT22;10106;51.332;12.336;2023-06-26T14:11:39;30.70;99.90
19888;DHT22;10106;51.332;12.336;2023-06-26T14:14:04;29.30;99.90
19888;DHT22;10106;51.332;12.336;2023-06-26T14:16:30;27.90;99.90
19888;DHT22;10106;51.332;12.336;2023-06-26T14:19:01;26.70;1.00
19888;DHT22;10106;51.332;12.336;2023-06-26T14:21:27;26.20;1.00
19888;DHT22;10106;51.332;12.336;2023-06-26T14:23:56;26.00;1.00
19888;DHT22;10106;51.332;12.336;2023-06-26T14:26:22;26.00;99.90
19888;DHT22;10106;51.332;12.336;2023-06-26T14:28:47;26.00;37.40
19888;DHT22;10106;51.332;12.336;2023-06-26T14:31:13;26.00;99.90
19888;DHT22;10106;51.332;12.336;2023-06-26T14:33:39;25.90;99.90
19888;DHT22;10106;51.332;12.336;2023-06-26T14:36:05;25.90;99.90
19888;DHT22;10106;51.332;12.336;2023-06-26T14:38:30;25.80;99.90
19888;DHT22;10106;51.332;12.336;2023-06-26T14:40:56;26.10;99.90
19888;DHT22;10106;51.332;12.336;2023-06-26T14:43:22;26.20;99.90
19888;DHT22;10106;51.332;12.336;2023-06-26T14:45:49;26.30;99.90
19888;DHT22;10106;51.332;12.336;2023-06-26T14:48:15;26.50;99.90
19888;DHT22;10106;51.332;12.336;2023-06-26T14:50:41;26.60;99.90
19888;DHT22;10106;51.332;12.336;2023-06-26T14:53:07;26.70;99.90
19888;DHT22;10106;51.332;12.336;2023-06-26T14:55:32;26.80;99.90
19888;DHT22;10106;51.332;12.336;2023-06-26T14:57:58;26.80;99.90
19888;DHT22;10106;51.332;12.336;2023-06-26T15:00:23;26.90;99.90
19888;DHT22;10106;51.332;12.336;2023-06-26T15:02:50;26.70;99.90
19888;DHT22;10106;51.332;12.336;2023-06-26T15:05:19;26.50;99.90
19888;DHT22;10106;51.332;12.336;2023-06-26T15:07:44;26.60;99.90
19888;DHT22;10106;51.332;12.336;2023-06-26T15:10:10;26.60;99.90
19888;DHT22;10106;51.332;12.336;2023-06-26T15:12:35;26.60;99.90
19888;DHT22;10106;51.332;12.336;2023-06-26T15:15:03;26.60;99.90
19888;DHT22;10106;51.332;12.336;2023-06-26T15:17:29;26.40;99.90
19888;DHT22;10106;51.332;12.336;2023-06-26T15:22:30;26.00;99.90
19888;DHT22;10106;51.332;12.336;2023-06-26T15:24:58;25.80;99.90
19888;DHT22;10106;51.332;12.336;2023-06-26T15:27:27;25.80;99.90
19888;DHT22;10106;51.332;12.336;2023-06-26T15:29:53;26.00;99.90
19888;DHT22;10106;51.332;12.336;2023-06-26T15:32:19;26.10;99.90
19888;DHT22;10106;51.332;12.336;2023-06-26T15:34:45;26.30;99.90
19888;DHT22;10106;51.332;12.336;2023-06-26T15:37:13;26.30;99.90
19888;DHT22;10106;51.332;12.336;2023-06-26T15:39:39;26.30;99.90
19888;DHT22;10106;51.332;12.336;2023-06-26T15:42:05;26.20;99.90